sensor_id;sensor_type;location;lat;lon;timestamp;pressure;altitude;pressure_sealevel;temperature;humidity
53041;BME280;39326;42.650;23.248;2022-09-20T00:00:38;92688.78;;;8.66;62.84
53041;BME280;39326;42.650;23.248;2022-09-20T00:03:04;92694.09;;;8.66;63.26
53041;BME280;39326;42.650;23.248;2022-09-20T00:05:36;92697.13;;;8.68;63.21
53041;BME280;39326;42.650;23.248;2022-09-20T00:08:03;92688.22;;;8.50;62.99
53041;BME280;39326;42.650;23.248;2022-09-20T00:10:30;92678.34;;;8.46;63.13
53041;BME280;39326;42.650;23.248;2022-09-20T00:12:58;92681.78;;;8.51;63.28
53041;BME280;39326;42.650;23.248;2022-09-20T00:15:24;92681.38;;;8.45;63.29
53041;BME280;39326;42.650;23.248;2022-09-20T00:17:49;92683.72;;;8.54;62.82
53041;BME280;39326;42.650;23.248;2022-09-20T00:20:14;92685.63;;;8.53;63.08
53041;BME280;39326;42.650;23.248;2022-09-20T00:22:40;92684.09;;;8.52;63.39
53041;BME280;39326;42.650;23.248;2022-09-20T00:25:06;92685.63;;;8.53;63.13
53041;BME280;39326;42.650;23.248;2022-09-20T00:27:31;92688.28;;;8.53;63.67
53041;BME280;39326;42.650;23.248;2022-09-20T00:29:57;92682.22;;;8.56;62.67
53041;BME280;39326;42.650;23.248;2022-09-20T00:32:23;92688.28;;;8.53;63.60
53041;BME280;39326;42.650;23.248;2022-09-20T00:34:48;92679.22;;;8.58;62.58
53041;BME280;39326;42.650;23.248;2022-09-20T00:37:41;92671.56;;;8.53;63.52
53041;BME280;39326;42.650;23.248;2022-09-20T00:40:19;92675.38;;;8.52;63.74
53041;BME280;39326;42.650;23.248;2022-09-20T00:42:46;92677.31;;;8.58;63.08
53041;BME280;39326;42.650;23.248;2022-09-20T00:45:21;92675.44;;;8.59;62.92
53041;BME280;39326;42.650;23.248;2022-09-20T00:50:45;92680.88;;;8.36;62.89
53041;BME280;39326;42.650;23.248;2022-09-20T00:53:15;92682.44;;;8.40;63.19
53041;BME280;39326;42.650;23.248;2022-09-20T00:55:47;92682.75;;;8.35;63.48
53041;BME280;39326;42.650;23.248;2022-09-20T00:58:14;92682.38;;;8.33;63.94
53041;BME280;39326;42.650;23.248;2022-09-20T01:00:42;92680.91;;;8.39;63.59
53041;BME280;39326;42.650;23.248;2022-09-20T01:03:09;92672.13;;;8.35;63.16
53041;BME280;39326;42.650;23.248;2022-09-20T01:05:38;92684.69;;;8.38;62.87
53041;BME280;39326;42.650;23.248;2022-09-20T01:08:04;92676.47;;;8.51;62.35
53041;BME280;39326;42.650;23.248;2022-09-20T01:10:31;92686.31;;;8.46;62.23
53041;BME280;39326;42.650;23.248;2022-09-20T01:12:56;92678.19;;;8.32;61.98
53041;BME280;39326;42.650;23.248;2022-09-20T01:15:23;92683.91;;;8.38;62.10
53041;BME280;39326;42.650;23.248;2022-09-20T01:17:54;92679.72;;;8.37;61.54
53041;BME280;39326;42.650;23.248;2022-09-20T01:20:23;92683.56;;;8.39;61.78
53041;BME280;39326;42.650;23.248;2022-09-20T01:25:46;92678.31;;;8.43;60.92
53041;BME280;39326;42.650;23.248;2022-09-20T01:28:18;92675.22;;;8.41;61.55
53041;BME280;39326;42.650;23.248;2022-09-20T01:34:01;92676.25;;;8.29;60.94
53041;BME280;39326;42.650;23.248;2022-09-20T01:58:02;92668.72;;;7.98;61.63
53041;BME280;39326;42.650;23.248;2022-09-20T02:09:13;92652.06;;;8.01;61.76
53041;BME280;39326;42.650;23.248;2022-09-20T02:14:58;92643.59;;;7.91;62.10
53041;BME280;39326;42.650;23.248;2022-09-20T02:22:44;92655.13;;;7.69;61.89
53041;BME280;39326;42.650;23.248;2022-09-20T02:47:12;92672.41;;;7.29;66.98
53041;BME280;39326;42.650;23.248;2022-09-20T02:57:35;92675.28;;;7.17;67.08
53041;BME280;39326;42.650;23.248;2022-09-20T03:00:08;92674.91;;;7.19;66.72
53041;BME280;39326;42.650;23.248;2022-09-20T03:02:45;92675.72;;;7.23;66.47
53041;BME280;39326;42.650;23.248;2022-09-20T03:19:49;92688.69;;;7.01;67.61
53041;BME280;39326;42.650;23.248;2022-09-20T03:22:52;92686.97;;;7.13;67.33
53041;BME280;39326;42.650;23.248;2022-09-20T03:26:09;92682.00;;;7.11;67.43
53041;BME280;39326;42.650;23.248;2022-09-20T03:42:01;92695.88;;;7.01;66.82
53041;BME280;39326;42.650;23.248;2022-09-20T04:03:27;92695.00;;;6.93;67.48
53041;BME280;39326;42.650;23.248;2022-09-20T04:11:55;92706.03;;;6.95;67.68
53041;BME280;39326;42.650;23.248;2022-09-20T04:20:30;92707.00;;;6.87;68.72
53041;BME280;39326;42.650;23.248;2022-09-20T04:23:02;92712.78;;;6.93;68.01
53041;BME280;39326;42.650;23.248;2022-09-20T04:25:40;92713.53;;;6.93;68.36
53041;BME280;39326;42.650;23.248;2022-09-20T04:28:14;92717.75;;;6.94;68.15
53041;BME280;39326;42.650;23.248;2022-09-20T04:30:42;92722.91;;;6.87;68.54
53041;BME280;39326;42.650;23.248;2022-09-20T04:33:18;92726.09;;;6.96;67.98
53041;BME280;39326;42.650;23.248;2022-09-20T04:56:19;92726.94;;;7.00;67.68
53041;BME280;39326;42.650;23.248;2022-09-20T04:59:02;92724.31;;;7.04;67.42
53041;BME280;39326;42.650;23.248;2022-09-20T05:12:47;92734.75;;;7.43;65.44
53041;BME280;39326;42.650;23.248;2022-09-20T05:15:48;92745.78;;;7.45;65.70
53041;BME280;39326;42.650;23.248;2022-09-20T05:21:21;92732.63;;;7.52;65.47
53041;BME280;39326;42.650;23.248;2022-09-20T05:29:25;92736.50;;;7.58;65.39
53041;BME280;39326;42.650;23.248;2022-09-20T05:32:23;92739.47;;;7.56;65.25
53041;BME280;39326;42.650;23.248;2022-09-20T05:35:00;92747.97;;;7.65;65.45
53041;BME280;39326;42.650;23.248;2022-09-20T05:40:26;92742.72;;;7.69;65.64
53041;BME280;39326;42.650;23.248;2022-09-20T05:53:59;92737.84;;;8.05;64.07
53041;BME280;39326;42.650;23.248;2022-09-20T05:56:40;92739.03;;;8.11;63.84
53041;BME280;39326;42.650;23.248;2022-09-20T05:59:29;92742.50;;;8.15;63.78
53041;BME280;39326;42.650;23.248;2022-09-20T06:16:39;92745.66;;;8.58;62.99
53041;BME280;39326;42.650;23.248;2022-09-20T06:24:25;92744.50;;;8.96;62.01
53041;BME280;39326;42.650;23.248;2022-09-20T06:26:54;92746.78;;;8.97;62.13
53041;BME280;39326;42.650;23.248;2022-09-20T06:29:28;92741.63;;;9.15;60.94
53041;BME280;39326;42.650;23.248;2022-09-20T06:31:55;92749.47;;;9.01;61.11
53041;BME280;39326;42.650;23.248;2022-09-20T06:34:20;92745.03;;;9.16;61.38
53041;BME280;39326;42.650;23.248;2022-09-20T06:36:50;92749.28;;;9.20;61.24
53041;BME280;39326;42.650;23.248;2022-09-20T06:39:51;92737.50;;;9.25;61.49
53041;BME280;39326;42.650;23.248;2022-09-20T06:42:38;92747.81;;;9.30;61.83
53041;BME280;39326;42.650;23.248;2022-09-20T06:45:03;92753.97;;;9.45;61.57
53041;BME280;39326;42.650;23.248;2022-09-20T06:47:29;92752.50;;;9.47;61.51
53041;BME280;39326;42.650;23.248;2022-09-20T06:49:55;92746.53;;;9.65;60.34
53041;BME280;39326;42.650;23.248;2022-09-20T06:52:21;92745.09;;;9.78;60.80
53041;BME280;39326;42.650;23.248;2022-09-20T06:54:49;92757.03;;;10.02;59.91
53041;BME280;39326;42.650;23.248;2022-09-20T06:57:22;92760.13;;;10.11;59.67
53041;BME280;39326;42.650;23.248;2022-09-20T06:59:48;92761.31;;;10.24;58.99
53041;BME280;39326;42.650;23.248;2022-09-20T07:02:13;92762.88;;;10.29;58.89
53041;BME280;39326;42.650;23.248;2022-09-20T07:04:38;92759.81;;;10.27;58.23
53041;BME280;39326;42.650;23.248;2022-09-20T07:07:06;92754.84;;;10.22;57.91
53041;BME280;39326;42.650;23.248;2022-09-20T07:09:32;92756.41;;;10.37;57.74
53041;BME280;39326;42.650;23.248;2022-09-20T07:11:58;92764.44;;;10.51;57.61
53041;BME280;39326;42.650;23.248;2022-09-20T07:14:24;92757.22;;;10.55;57.58
53041;BME280;39326;42.650;23.248;2022-09-20T07:16:51;92755.28;;;10.45;56.97
53041;BME280;39326;42.650;23.248;2022-09-20T07:19:16;92764.84;;;10.57;56.89
53041;BME280;39326;42.650;23.248;2022-09-20T07:21:42;92762.94;;;10.54;56.67
53041;BME280;39326;42.650;23.248;2022-09-20T07:24:07;92761.44;;;10.53;57.15
53041;BME280;39326;42.650;23.248;2022-09-20T07:26:33;92761.84;;;10.58;57.10
53041;BME280;39326;42.650;23.248;2022-09-20T07:28:59;92758.75;;;10.56;57.09
53041;BME280;39326;42.650;23.248;2022-09-20T07:31:28;92763.78;;;10.79;56.08
53041;BME280;39326;42.650;23.248;2022-09-20T07:33:54;92758.84;;;10.99;56.98
53041;BME280;39326;42.650;23.248;2022-09-20T07:36:20;92759.25;;;11.12;56.07
53041;BME280;39326;42.650;23.248;2022-09-20T07:38:47;92761.53;;;11.21;56.31
53041;BME280;39326;42.650;23.248;2022-09-20T07:41:13;92769.94;;;11.23;55.22
53041;BME280;39326;42.650;23.248;2022-09-20T07:43:38;92769.53;;;11.03;55.23
53041;BME280;39326;42.650;23.248;2022-09-20T07:46:04;92765.69;;;10.79;55.65
53041;BME280;39326;42.650;23.248;2022-09-20T07:48:32;92762.66;;;10.91;55.88
53041;BME280;39326;42.650;23.248;2022-09-20T07:51:01;92761.50;;;10.78;56.17
53041;BME280;39326;42.650;23.248;2022-09-20T07:53:27;92760.75;;;10.95;56.10
53041;BME280;39326;42.650;23.248;2022-09-20T07:55:57;92759.97;;;11.02;55.90
53041;BME280;39326;42.650;23.248;2022-09-20T07:58:22;92757.34;;;11.30;55.51
53041;BME280;39326;42.650;23.248;2022-09-20T08:00:53;92752.38;;;11.64;55.22
53041;BME280;39326;42.650;23.248;2022-09-20T08:03:18;92751.63;;;11.78;55.33
53041;BME280;39326;42.650;23.248;2022-09-20T08:05:44;92742.78;;;11.95;54.86
53041;BME280;39326;42.650;23.248;2022-09-20T08:08:09;92746.16;;;12.14;54.73
53041;BME280;39326;42.650;23.248;2022-09-20T08:10:35;92749.16;;;12.37;54.23
53041;BME280;39326;42.650;23.248;2022-09-20T08:13:03;92752.88;;;12.61;53.34
53041;BME280;39326;42.650;23.248;2022-09-20T08:15:29;92737.56;;;12.69;52.32
53041;BME280;39326;42.650;23.248;2022-09-20T08:17:55;92748.25;;;12.69;52.70
53041;BME280;39326;42.650;23.248;2022-09-20T08:20:20;92757.91;;;12.48;52.19
53041;BME280;39326;42.650;23.248;2022-09-20T08:22:45;92762.19;;;12.24;51.92
53041;BME280;39326;42.650;23.248;2022-09-20T08:25:11;92762.97;;;12.18;52.09
53041;BME280;39326;42.650;23.248;2022-09-20T08:27:36;92757.28;;;12.05;52.49
53041;BME280;39326;42.650;23.248;2022-09-20T08:30:02;92759.53;;;12.17;52.19
53041;BME280;39326;42.650;23.248;2022-09-20T08:32:28;92752.28;;;12.14;52.78
53041;BME280;39326;42.650;23.248;2022-09-20T08:34:53;92747.72;;;12.11;52.07
53041;BME280;39326;42.650;23.248;2022-09-20T08:37:18;92749.22;;;12.23;52.48
53041;BME280;39326;42.650;23.248;2022-09-20T08:39:44;92740.00;;;12.31;51.77
53041;BME280;39326;42.650;23.248;2022-09-20T08:42:33;92734.66;;;12.31;50.60
53041;BME280;39326;42.650;23.248;2022-09-20T08:45:05;92732.38;;;12.30;50.30
53041;BME280;39326;42.650;23.248;2022-09-20T08:47:33;92728.19;;;12.29;50.67
53041;BME280;39326;42.650;23.248;2022-09-20T08:50:03;92734.28;;;12.29;51.07
53041;BME280;39326;42.650;23.248;2022-09-20T08:52:33;92728.56;;;12.23;51.15
53041;BME280;39326;42.650;23.248;2022-09-20T08:55:01;92724.72;;;12.32;50.81
53041;BME280;39326;42.650;23.248;2022-09-20T08:57:30;92725.84;;;12.38;50.04
53041;BME280;39326;42.650;23.248;2022-09-20T09:00:02;92724.25;;;12.51;49.66
53041;BME280;39326;42.650;23.248;2022-09-20T09:02:29;92725.41;;;12.50;49.78
53041;BME280;39326;42.650;23.248;2022-09-20T09:04:55;92725.41;;;12.54;49.08
53041;BME280;39326;42.650;23.248;2022-09-20T09:07:22;92716.97;;;12.55;49.83
53041;BME280;39326;42.650;23.248;2022-09-20T09:09:51;92718.81;;;12.72;49.80
53041;BME280;39326;42.650;23.248;2022-09-20T09:12:23;92708.50;;;12.64;49.52
53041;BME280;39326;42.650;23.248;2022-09-20T09:14:50;92701.97;;;12.75;50.20
53041;BME280;39326;42.650;23.248;2022-09-20T09:17:24;92709.69;;;12.66;49.74
53041;BME280;39326;42.650;23.248;2022-09-20T09:20:13;92710.06;;;12.61;50.00
53041;BME280;39326;42.650;23.248;2022-09-20T09:22:41;92705.81;;;12.71;49.84
53041;BME280;39326;42.650;23.248;2022-09-20T09:25:39;92703.78;;;12.93;48.04
53041;BME280;39326;42.650;23.248;2022-09-20T09:35:38;92690.06;;;12.84;48.04
53041;BME280;39326;42.650;23.248;2022-09-20T09:38:04;92686.72;;;12.69;47.51
53041;BME280;39326;42.650;23.248;2022-09-20T09:40:31;92684.22;;;12.96;47.08
53041;BME280;39326;42.650;23.248;2022-09-20T09:43:00;92687.38;;;12.87;46.42
53041;BME280;39326;42.650;23.248;2022-09-20T09:45:28;92686.06;;;13.10;46.65
53041;BME280;39326;42.650;23.248;2022-09-20T09:47:56;92686.69;;;13.24;46.64
53041;BME280;39326;42.650;23.248;2022-09-20T09:50:27;92674.41;;;13.27;45.04
53041;BME280;39326;42.650;23.248;2022-09-20T09:52:59;92686.22;;;13.33;44.97
53041;BME280;39326;42.650;23.248;2022-09-20T09:55:37;92680.06;;;13.40;45.64
53041;BME280;39326;42.650;23.248;2022-09-20T09:58:18;92681.63;;;13.75;46.59
53041;BME280;39326;42.650;23.248;2022-09-20T10:00:47;92676.97;;;13.86;45.29
53041;BME280;39326;42.650;23.248;2022-09-20T10:03:40;92681.81;;;14.29;44.69
53041;BME280;39326;42.650;23.248;2022-09-20T10:17:08;92673.75;;;14.59;43.74
53041;BME280;39326;42.650;23.248;2022-09-20T10:30:24;92673.09;;;14.21;43.74
53041;BME280;39326;42.650;23.248;2022-09-20T10:36:05;92683.91;;;14.14;43.99
53041;BME280;39326;42.650;23.248;2022-09-20T10:38:47;92666.84;;;13.97;43.73
53041;BME280;39326;42.650;23.248;2022-09-20T10:41:27;92685.00;;;13.86;43.67
53041;BME280;39326;42.650;23.248;2022-09-20T10:44:25;92690.38;;;13.82;43.46
53041;BME280;39326;42.650;23.248;2022-09-20T10:47:15;92672.34;;;13.87;41.98
53041;BME280;39326;42.650;23.248;2022-09-20T10:50:06;92682.25;;;13.93;41.12
53041;BME280;39326;42.650;23.248;2022-09-20T11:00:40;92675.91;;;14.99;41.84
53041;BME280;39326;42.650;23.248;2022-09-20T11:08:32;92675.00;;;14.78;40.72
53041;BME280;39326;42.650;23.248;2022-09-20T11:14:11;92654.31;;;15.06;41.42
53041;BME280;39326;42.650;23.248;2022-09-20T11:16:45;92658.44;;;15.10;40.99
53041;BME280;39326;42.650;23.248;2022-09-20T11:21:50;92662.59;;;15.38;40.23
53041;BME280;39326;42.650;23.248;2022-09-20T11:24:29;92650.97;;;15.22;39.58
53041;BME280;39326;42.650;23.248;2022-09-20T11:27:05;92650.88;;;15.05;39.80
53041;BME280;39326;42.650;23.248;2022-09-20T11:29:36;92648.00;;;15.39;40.33
53041;BME280;39326;42.650;23.248;2022-09-20T11:32:26;92652.91;;;15.44;39.28
53041;BME280;39326;42.650;23.248;2022-09-20T11:37:46;92648.22;;;15.49;39.85
53041;BME280;39326;42.650;23.248;2022-09-20T11:42:57;92648.03;;;15.59;39.55
53041;BME280;39326;42.650;23.248;2022-09-20T11:45:25;92643.25;;;15.47;39.95
53041;BME280;39326;42.650;23.248;2022-09-20T11:47:56;92641.69;;;15.03;39.43
53041;BME280;39326;42.650;23.248;2022-09-20T11:54:06;92649.59;;;15.13;41.22
53041;BME280;39326;42.650;23.248;2022-09-20T11:56:32;92636.19;;;15.10;40.68
53041;BME280;39326;42.650;23.248;2022-09-20T11:59:01;92633.59;;;15.30;40.67
53041;BME280;39326;42.650;23.248;2022-09-20T12:01:39;92633.16;;;15.75;40.30
53041;BME280;39326;42.650;23.248;2022-09-20T12:04:22;92636.97;;;16.17;38.85
53041;BME280;39326;42.650;23.248;2022-09-20T12:10:06;92637.38;;;16.15;37.59
53041;BME280;39326;42.650;23.248;2022-09-20T12:28:59;92623.09;;;15.79;36.79
53041;BME280;39326;42.650;23.248;2022-09-20T12:36:36;92630.47;;;15.31;37.79
53041;BME280;39326;42.650;23.248;2022-09-20T12:39:13;92629.66;;;15.34;37.94
53041;BME280;39326;42.650;23.248;2022-09-20T12:44:37;92619.44;;;15.69;37.08
53041;BME280;39326;42.650;23.248;2022-09-20T12:47:17;92616.69;;;15.92;37.55
53041;BME280;39326;42.650;23.248;2022-09-20T12:56:05;92624.41;;;15.90;36.21
53041;BME280;39326;42.650;23.248;2022-09-20T12:58:33;92616.63;;;15.76;37.13
53041;BME280;39326;42.650;23.248;2022-09-20T13:16:59;92603.03;;;15.63;38.29
53041;BME280;39326;42.650;23.248;2022-09-20T13:19:34;92604.81;;;15.50;37.77
53041;BME280;39326;42.650;23.248;2022-09-20T13:22:45;92597.66;;;15.63;37.99
53041;BME280;39326;42.650;23.248;2022-09-20T13:25:04;92605.28;;;15.65;38.58
53041;BME280;39326;42.650;23.248;2022-09-20T13:27:41;92615.44;;;15.77;38.26
53041;BME280;39326;42.650;23.248;2022-09-20T13:30:20;92612.19;;;15.66;36.40
53041;BME280;39326;42.650;23.248;2022-09-20T13:32:47;92608.47;;;15.60;37.41
53041;BME280;39326;42.650;23.248;2022-09-20T13:35:20;92607.50;;;15.70;36.48
53041;BME280;39326;42.650;23.248;2022-09-20T13:42:47;92605.88;;;15.96;35.96
53041;BME280;39326;42.650;23.248;2022-09-20T13:45:13;92609.13;;;16.07;35.36
53041;BME280;39326;42.650;23.248;2022-09-20T13:47:42;92603.59;;;16.14;34.91
53041;BME280;39326;42.650;23.248;2022-09-20T13:52:45;92601.16;;;16.20;35.34
53041;BME280;39326;42.650;23.248;2022-09-20T13:55:31;92604.75;;;16.13;34.94
53041;BME280;39326;42.650;23.248;2022-09-20T13:58:06;92594.88;;;16.26;35.17
53041;BME280;39326;42.650;23.248;2022-09-20T14:00:34;92585.94;;;16.13;35.44
53041;BME280;39326;42.650;23.248;2022-09-20T14:03:03;92596.38;;;16.28;35.27
53041;BME280;39326;42.650;23.248;2022-09-20T14:05:29;92599.06;;;16.28;35.62
53041;BME280;39326;42.650;23.248;2022-09-20T14:07:56;92602.09;;;16.30;35.98
53041;BME280;39326;42.650;23.248;2022-09-20T14:10:33;92603.59;;;15.94;35.13
53041;BME280;39326;42.650;23.248;2022-09-20T14:13:04;92603.97;;;15.73;35.94
53041;BME280;39326;42.650;23.248;2022-09-20T14:15:41;92600.66;;;15.45;36.19
53041;BME280;39326;42.650;23.248;2022-09-20T14:18:12;92611.84;;;15.21;36.75
53041;BME280;39326;42.650;23.248;2022-09-20T14:20:42;92601.09;;;14.97;37.12
53041;BME280;39326;42.650;23.248;2022-09-20T14:26:04;92604.03;;;14.56;36.37
53041;BME280;39326;42.650;23.248;2022-09-20T14:28:30;92604.28;;;14.38;38.22
53041;BME280;39326;42.650;23.248;2022-09-20T14:31:06;92609.09;;;14.23;38.47
53041;BME280;39326;42.650;23.248;2022-09-20T14:33:32;92600.66;;;14.21;38.86
53041;BME280;39326;42.650;23.248;2022-09-20T14:35:58;92614.94;;;14.15;39.30
53041;BME280;39326;42.650;23.248;2022-09-20T14:38:25;92608.91;;;14.07;39.54
53041;BME280;39326;42.650;23.248;2022-09-20T14:40:51;92599.44;;;13.99;39.38
53041;BME280;39326;42.650;23.248;2022-09-20T14:43:33;92606.41;;;13.93;39.68
53041;BME280;39326;42.650;23.248;2022-09-20T14:46:14;92607.00;;;14.04;39.59
53041;BME280;39326;42.650;23.248;2022-09-20T14:48:40;92617.47;;;13.95;40.46
53041;BME280;39326;42.650;23.248;2022-09-20T14:53:50;92613.78;;;13.81;40.48
53041;BME280;39326;42.650;23.248;2022-09-20T14:56:25;92624.38;;;13.58;40.71
53041;BME280;39326;42.650;23.248;2022-09-20T15:01:37;92616.97;;;13.35;41.57
53041;BME280;39326;42.650;23.248;2022-09-20T15:04:07;92618.06;;;13.41;42.02
53041;BME280;39326;42.650;23.248;2022-09-20T15:06:36;92613.16;;;13.32;42.48
53041;BME280;39326;42.650;23.248;2022-09-20T15:09:04;92618.09;;;13.34;43.05
53041;BME280;39326;42.650;23.248;2022-09-20T15:11:29;92607.88;;;13.25;43.61
53041;BME280;39326;42.650;23.248;2022-09-20T15:13:55;92624.47;;;13.10;44.72
53041;BME280;39326;42.650;23.248;2022-09-20T15:16:20;92617.69;;;12.98;44.81
53041;BME280;39326;42.650;23.248;2022-09-20T15:18:46;92611.63;;;12.90;45.31
53041;BME280;39326;42.650;23.248;2022-09-20T15:21:11;92605.28;;;12.73;45.56
53041;BME280;39326;42.650;23.248;2022-09-20T15:23:38;92612.50;;;12.76;45.77
53041;BME280;39326;42.650;23.248;2022-09-20T15:26:03;92618.25;;;12.71;46.26
53041;BME280;39326;42.650;23.248;2022-09-20T15:28:30;92621.34;;;12.70;46.05
53041;BME280;39326;42.650;23.248;2022-09-20T15:30:57;92617.50;;;12.74;46.44
53041;BME280;39326;42.650;23.248;2022-09-20T15:33:23;92627.13;;;12.61;46.76
53041;BME280;39326;42.650;23.248;2022-09-20T15:35:49;92629.03;;;12.61;46.75
53041;BME280;39326;42.650;23.248;2022-09-20T15:38:18;92619.91;;;12.51;47.71
53041;BME280;39326;42.650;23.248;2022-09-20T15:40:46;92624.16;;;12.45;47.78
53041;BME280;39326;42.650;23.248;2022-09-20T15:43:15;92623.88;;;12.29;48.03
53041;BME280;39326;42.650;23.248;2022-09-20T15:48:18;92626.69;;;12.00;48.84
53041;BME280;39326;42.650;23.248;2022-09-20T15:51:04;92640.41;;;12.06;48.66
53041;BME280;39326;42.650;23.248;2022-09-20T15:53:42;92625.53;;;12.05;48.18
53041;BME280;39326;42.650;23.248;2022-09-20T15:59:03;92641.94;;;12.07;49.62
53041;BME280;39326;42.650;23.248;2022-09-20T16:03:56;92641.66;;;11.87;49.72
53041;BME280;39326;42.650;23.248;2022-09-20T16:06:22;92634.06;;;11.75;49.81
53041;BME280;39326;42.650;23.248;2022-09-20T16:08:48;92638.63;;;11.74;49.86
53041;BME280;39326;42.650;23.248;2022-09-20T16:11:16;92644.34;;;11.76;49.87
53041;BME280;39326;42.650;23.248;2022-09-20T16:13:44;92646.66;;;11.74;50.56
53041;BME280;39326;42.650;23.248;2022-09-20T16:16:10;92634.13;;;11.60;50.83
53041;BME280;39326;42.650;23.248;2022-09-20T16:18:40;92645.53;;;11.72;50.34
53041;BME280;39326;42.650;23.248;2022-09-20T16:21:24;92645.53;;;11.64;50.54
53041;BME280;39326;42.650;23.248;2022-09-20T16:23:52;92648.63;;;11.59;50.93
53041;BME280;39326;42.650;23.248;2022-09-20T16:26:19;92637.16;;;11.55;50.74
53041;BME280;39326;42.650;23.248;2022-09-20T16:28:46;92644.44;;;11.51;50.75
53041;BME280;39326;42.650;23.248;2022-09-20T16:31:32;92650.16;;;11.39;52.12
53041;BME280;39326;42.650;23.248;2022-09-20T16:34:02;92647.88;;;11.34;50.94
53041;BME280;39326;42.650;23.248;2022-09-20T16:36:30;92646.75;;;11.28;50.81
53041;BME280;39326;42.650;23.248;2022-09-20T16:38:55;92647.13;;;11.23;51.06
53041;BME280;39326;42.650;23.248;2022-09-20T16:41:25;92650.19;;;11.21;50.88
53041;BME280;39326;42.650;23.248;2022-09-20T16:43:52;92644.84;;;11.18;51.04
53041;BME280;39326;42.650;23.248;2022-09-20T16:46:19;92655.16;;;11.12;51.54
53041;BME280;39326;42.650;23.248;2022-09-20T16:48:48;92654.38;;;11.08;50.74
53041;BME280;39326;42.650;23.248;2022-09-20T16:51:21;92660.47;;;11.01;51.17
53041;BME280;39326;42.650;23.248;2022-09-20T16:53:50;92657.81;;;10.94;51.22
53041;BME280;39326;42.650;23.248;2022-09-20T16:56:26;92664.69;;;10.92;51.71
53041;BME280;39326;42.650;23.248;2022-09-20T16:58:54;92662.00;;;10.88;51.56
53041;BME280;39326;42.650;23.248;2022-09-20T17:01:20;92666.97;;;10.79;51.56
53041;BME280;39326;42.650;23.248;2022-09-20T17:03:45;92666.56;;;10.77;51.46
53041;BME280;39326;42.650;23.248;2022-09-20T17:06:13;92666.22;;;10.75;52.11
53041;BME280;39326;42.650;23.248;2022-09-20T17:08:39;92667.72;;;10.69;52.29
53041;BME280;39326;42.650;23.248;2022-09-20T17:11:12;92665.81;;;10.58;53.51
53041;BME280;39326;42.650;23.248;2022-09-20T17:13:39;92669.59;;;10.57;53.18
53041;BME280;39326;42.650;23.248;2022-09-20T17:16:20;92667.34;;;10.59;52.98
53041;BME280;39326;42.650;23.248;2022-09-20T17:19:00;92667.31;;;10.56;52.80
53041;BME280;39326;42.650;23.248;2022-09-20T17:21:28;92679.13;;;10.51;52.99
53041;BME280;39326;42.650;23.248;2022-09-20T17:23:56;92679.91;;;10.48;52.94
53041;BME280;39326;42.650;23.248;2022-09-20T17:26:25;92679.13;;;10.48;53.51
53041;BME280;39326;42.650;23.248;2022-09-20T17:28:53;92682.53;;;10.45;53.38
53041;BME280;39326;42.650;23.248;2022-09-20T17:31:22;92681.38;;;10.31;54.71
53041;BME280;39326;42.650;23.248;2022-09-20T17:33:48;92674.88;;;10.22;54.99
53041;BME280;39326;42.650;23.248;2022-09-20T17:36:18;92680.22;;;10.32;55.03
53041;BME280;39326;42.650;23.248;2022-09-20T17:38:46;92682.13;;;10.28;55.40
53041;BME280;39326;42.650;23.248;2022-09-20T17:41:15;92685.19;;;10.27;55.62
53041;BME280;39326;42.650;23.248;2022-09-20T17:43:42;92683.25;;;10.24;55.75
53041;BME280;39326;42.650;23.248;2022-09-20T17:46:12;92682.53;;;10.27;55.49
53041;BME280;39326;42.650;23.248;2022-09-20T17:48:39;92684.03;;;10.21;55.54
53041;BME280;39326;42.650;23.248;2022-09-20T17:51:06;92690.88;;;10.22;55.73
53041;BME280;39326;42.650;23.248;2022-09-20T17:53:34;92679.41;;;10.14;55.55
53041;BME280;39326;42.650;23.248;2022-09-20T17:56:00;92690.47;;;10.16;56.16
53041;BME280;39326;42.650;23.248;2022-09-20T17:58:26;92690.84;;;10.18;56.13
53041;BME280;39326;42.650;23.248;2022-09-20T18:00:52;92684.75;;;10.18;55.48
53041;BME280;39326;42.650;23.248;2022-09-20T18:03:23;92690.50;;;10.23;55.11
53041;BME280;39326;42.650;23.248;2022-09-20T18:05:49;92691.63;;;10.22;55.05
53041;BME280;39326;42.650;23.248;2022-09-20T18:08:16;92695.44;;;10.21;54.84
53041;BME280;39326;42.650;23.248;2022-09-20T18:10:53;92693.88;;;10.13;55.78
53041;BME280;39326;42.650;23.248;2022-09-20T18:13:19;92698.00;;;9.96;56.20
53041;BME280;39326;42.650;23.248;2022-09-20T18:15:44;92692.66;;;10.00;55.77
53041;BME280;39326;42.650;23.248;2022-09-20T18:18:10;92705.28;;;10.03;55.62
53041;BME280;39326;42.650;23.248;2022-09-20T18:20:36;92702.97;;;10.01;55.45
53041;BME280;39326;42.650;23.248;2022-09-20T18:23:03;92700.31;;;10.01;55.08
53041;BME280;39326;42.650;23.248;2022-09-20T18:25:28;92710.53;;;9.99;54.91
53041;BME280;39326;42.650;23.248;2022-09-20T18:27:54;92703.31;;;9.96;54.80
53041;BME280;39326;42.650;23.248;2022-09-20T18:30:19;92700.63;;;9.93;55.47
53041;BME280;39326;42.650;23.248;2022-09-20T18:32:49;92693.78;;;9.95;54.43
53041;BME280;39326;42.650;23.248;2022-09-20T18:35:14;92701.75;;;9.95;54.63
53041;BME280;39326;42.650;23.248;2022-09-20T18:37:40;92700.66;;;9.96;54.31
53041;BME280;39326;42.650;23.248;2022-09-20T18:40:05;92705.16;;;9.89;55.04
53041;BME280;39326;42.650;23.248;2022-09-20T18:42:31;92699.81;;;9.78;55.16
53041;BME280;39326;42.650;23.248;2022-09-20T18:44:57;92703.22;;;9.78;55.07
53041;BME280;39326;42.650;23.248;2022-09-20T18:47:23;92705.09;;;9.71;55.91
53041;BME280;39326;42.650;23.248;2022-09-20T18:49:49;92708.53;;;9.71;56.12
53041;BME280;39326;42.650;23.248;2022-09-20T18:52:14;92704.69;;;9.69;55.74
53041;BME280;39326;42.650;23.248;2022-09-20T18:54:48;92694.03;;;9.65;55.90